Time;durP1;ratioP1;P1;durP2;ratioP2;P2;SDS_P1;SDS_P2;PMS_P1;PMS_P2;Temp;Humidity;BMP_temperature;BMP_pressure;BME280_temperature;BME280_humidity;BME280_pressure;Samples;Min_cycle;Max_cycle;Signal;HPM_P1;HPM_P2
2023/10/30 00:00:08;;;;;;;3.53;1.17;;;;;;;;;;5005039;28;20030;-67
2023/10/30 00:02:36;;;;;;;3.10;0.85;;;;;;;;;;4999294;28;20383;-67
2023/10/30 00:05:01;;;;;;;3.47;1.13;;;;;;;;;;5013630;28;20472;-67
2023/10/30 00:07:27;;;;;;;3.20;0.63;;;;;;;;;;5003376;28;20080;-67
2023/10/30 00:09:53;;;;;;;2.72;0.93;;;;;;;;;;5013474;28;20022;-67
2023/10/30 00:12:18;;;;;;;9.20;1.13;;;;;;;;;;5013980;28;20125;-67
2023/10/30 00:14:43;;;;;;;5.00;1.27;;;;;;;;;;5013867;28;20022;-67
2023/10/30 00:17:08;;;;;;;6.63;1.63;;;;;;;;;;5013027;28;20053;-67
2023/10/30 00:19:34;;;;;;;8.17;1.30;;;;;;;;;;5013623;28;20269;-67
2023/10/30 00:21:59;;;;;;;6.30;1.10;;;;;;;;;;5013781;28;20300;-67
2023/10/30 00:24:25;;;;;;;3.42;1.27;;;;;;;;;;5012608;28;20030;-68
2023/10/30 00:26:50;;;;;;;3.72;1.33;;;;;;;;;;5013498;28;20060;-67
2023/10/30 00:29:15;;;;;;;4.75;1.20;;;;;;;;;;5013580;28;20468;-68
2023/10/30 00:31:40;;;;;;;3.38;0.73;;;;;;;;;;5013193;28;20017;-69
2023/10/30 00:34:09;;;;;;;2.25;0.73;;;;;;;;;;5013690;28;20040;-67
2023/10/30 00:36:35;;;;;;;5.43;1.23;;;;;;;;;;5013374;28;20053;-67
2023/10/30 00:39:00;;;;;;;4.78;1.00;;;;;;;;;;5013106;28;20423;-66
2023/10/30 00:41:25;;;;;;;5.90;1.30;;;;;;;;;;5013540;28;20045;-67
2023/10/30 00:43:51;;;;;;;2.55;0.70;;;;;;;;;;5012872;28;20273;-67
2023/10/30 00:46:17;;;;;;;5.85;0.77;;;;;;;;;;5012961;28;20026;-66
2023/10/30 00:48:42;;;;;;;1.85;0.60;;;;;;;;;;5013191;28;20072;-67
2023/10/30 00:51:07;;;;;;;3.08;0.70;;;;;;;;;;5012946;28;20034;-68
2023/10/30 00:53:33;;;;;;;5.85;2.00;;;;;;;;;;5013045;28;20021;-67
2023/10/30 00:55:58;;;;;;;5.82;1.30;;;;;;;;;;5013409;28;20061;-67
2023/10/30 00:58:23;;;;;;;4.00;1.33;;;;;;;;;;5013069;28;20112;-67
2023/10/30 01:00:48;;;;;;;5.55;1.02;;;;;;;;;;5002745;28;20307;-67
2023/10/30 01:03:15;;;;;;;4.03;1.23;;;;;;;;;;5012827;28;20091;-67
2023/10/30 01:05:40;;;;;;;3.55;0.90;;;;;;;;;;5012202;28;20025;-67
2023/10/30 01:08:08;;;;;;;3.78;1.23;;;;;;;;;;5013025;28;20036;-67
2023/10/30 01:10:34;;;;;;;2.13;0.73;;;;;;;;;;5012817;28;20033;-67
2023/10/30 01:12:59;;;;;;;3.58;0.88;;;;;;;;;;5012997;28;20022;-67
2023/10/30 01:15:24;;;;;;;4.83;0.87;;;;;;;;;;5012561;28;20033;-67
2023/10/30 01:17:50;;;;;;;3.20;0.80;;;;;;;;;;5012653;28;20277;-67
2023/10/30 01:20:15;;;;;;;5.13;1.40;;;;;;;;;;5012199;28;20359;-68
2023/10/30 01:22:40;;;;;;;6.18;1.10;;;;;;;;;;5012919;28;20030;-66
2023/10/30 01:25:06;;;;;;;1.90;0.70;;;;;;;;;;5012277;28;20060;-66
2023/10/30 01:27:31;;;;;;;6.10;1.33;;;;;;;;;;5012635;28;20328;-66
2023/10/30 01:29:56;;;;;;;1.73;0.70;;;;;;;;;;5012522;28;20455;-67
2023/10/30 01:32:22;;;;;;;5.67;1.23;;;;;;;;;;5012109;28;20810;-67
2023/10/30 01:34:47;;;;;;;6.47;1.00;;;;;;;;;;5011339;28;20781;-68
2023/10/30 01:37:12;;;;;;;2.30;0.80;;;;;;;;;;5012579;28;20769;-67
2023/10/30 01:39:37;;;;;;;7.10;1.08;;;;;;;;;;5011693;28;20751;-67
2023/10/30 01:42:03;;;;;;;3.73;1.00;;;;;;;;;;5012575;28;20556;-67
2023/10/30 01:44:28;;;;;;;8.15;0.95;;;;;;;;;;5012366;28;20751;-68
2023/10/30 01:46:53;;;;;;;2.55;0.63;;;;;;;;;;5012408;28;20068;-66
2023/10/30 01:49:19;;;;;;;2.23;0.93;;;;;;;;;;5012238;28;20029;-67
2023/10/30 01:51:44;;;;;;;2.78;0.82;;;;;;;;;;5012198;28;21094;-65
2023/10/30 01:54:09;;;;;;;7.90;1.42;;;;;;;;;;5012351;28;20461;-65
2023/10/30 01:56:35;;;;;;;5.97;1.35;;;;;;;;;;5012528;28;20037;-65
2023/10/30 01:59:00;;;;;;;3.03;0.73;;;;;;;;;;5010859;28;20018;-66
2023/10/30 02:01:25;;;;;;;3.03;0.80;;;;;;;;;;5001189;28;20025;-66
2023/10/30 02:03:52;;;;;;;4.85;1.23;;;;;;;;;;5007997;28;20361;-65
2023/10/30 02:06:17;;;;;;;2.20;0.90;;;;;;;;;;5004298;28;20048;-66
2023/10/30 02:08:42;;;;;;;2.47;1.02;;;;;;;;;;5007028;28;20052;-66
2023/10/30 02:11:08;;;;;;;4.53;1.30;;;;;;;;;;5012316;28;20519;-65
2023/10/30 02:13:33;;;;;;;6.50;1.03;;;;;;;;;;5011688;28;20056;-66
2023/10/30 02:15:58;;;;;;;4.35;1.65;;;;;;;;;;5011678;28;20272;-65
2023/10/30 02:18:23;;;;;;;7.60;1.35;;;;;;;;;;5011546;28;20018;-66
2023/10/30 02:20:49;;;;;;;3.58;1.20;;;;;;;;;;5012095;28;20117;-67
2023/10/30 02:23:14;;;;;;;4.13;1.17;;;;;;;;;;5011251;28;20440;-66
2023/10/30 02:25:39;;;;;;;2.70;0.93;;;;;;;;;;5012108;28;20105;-65
2023/10/30 02:28:04;;;;;;;1.98;0.65;;;;;;;;;;5011401;28;20026;-64
2023/10/30 02:30:30;;;;;;;3.60;0.90;;;;;;;;;;5011790;28;20048;-66
2023/10/30 02:32:55;;;;;;;2.60;0.90;;;;;;;;;;5010750;28;20271;-66
2023/10/30 02:35:20;;;;;;;3.10;1.00;;;;;;;;;;5011520;28;20018;-66
2023/10/30 02:37:46;;;;;;;5.40;1.30;;;;;;;;;;5006719;28;20018;-66
2023/10/30 02:40:12;;;;;;;5.35;1.08;;;;;;;;;;5010943;28;20041;-66
2023/10/30 02:42:37;;;;;;;3.72;0.82;;;;;;;;;;5011964;28;20041;-66
2023/10/30 02:45:06;;;;;;;3.03;0.85;;;;;;;;;;5011065;28;20061;-66
2023/10/30 02:47:31;;;;;;;2.28;0.80;;;;;;;;;;5000834;28;20116;-64
2023/10/30 02:49:57;;;;;;;2.85;0.43;;;;;;;;;;5014261;28;20106;-65
2023/10/30 02:52:22;;;;;;;3.00;0.93;;;;;;;;;;5015280;28;20523;-65
2023/10/30 02:54:47;;;;;;;4.38;0.80;;;;;;;;;;5015160;28;20687;-65
2023/10/30 02:57:15;;;;;;;5.03;0.98;;;;;;;;;;5014404;28;20029;-65
2023/10/30 02:59:41;;;;;;;4.10;1.05;;;;;;;;;;5015060;28;20096;-65
2023/10/30 03:02:06;;;;;;;2.40;0.80;;;;;;;;;;5014648;28;20168;-65
2023/10/30 03:04:31;;;;;;;3.08;0.98;;;;;;;;;;5015706;28;20021;-66
2023/10/30 03:06:58;;;;;;;3.10;1.15;;;;;;;;;;5014186;28;20034;-65
2023/10/30 03:09:24;;;;;;;5.43;1.10;;;;;;;;;;5014913;28;20034;-66
2023/10/30 03:11:49;;;;;;;2.28;0.70;;;;;;;;;;5023832;28;20025;-64
2023/10/30 03:14:14;;;;;;;3.63;0.90;;;;;;;;;;5013688;28;20026;-64
2023/10/30 03:16:39;;;;;;;3.13;1.15;;;;;;;;;;5013964;28;20363;-64
2023/10/30 03:19:05;;;;;;;3.37;1.00;;;;;;;;;;5014469;28;20029;-65
2023/10/30 03:21:30;;;;;;;4.53;0.93;;;;;;;;;;5014375;28;20272;-65
2023/10/30 03:23:55;;;;;;;3.63;1.23;;;;;;;;;;5014704;28;20280;-66
2023/10/30 03:26:20;;;;;;;4.43;0.63;;;;;;;;;;5014505;28;20375;-63
2023/10/30 03:28:46;;;;;;;3.80;1.10;;;;;;;;;;5014132;28;20277;-65
2023/10/30 03:31:11;;;;;;;1.55;0.70;;;;;;;;;;5015524;28;20033;-65
2023/10/30 03:33:36;;;;;;;2.47;0.80;;;;;;;;;;5013924;28;20030;-65
2023/10/30 03:36:02;;;;;;;6.23;1.67;;;;;;;;;;5013942;28;20049;-65
2023/10/30 03:38:28;;;;;;;3.33;0.93;;;;;;;;;;5014604;28;20292;-65
2023/10/30 03:40:53;;;;;;;4.03;1.27;;;;;;;;;;5013819;28;20159;-65
2023/10/30 03:43:18;;;;;;;2.72;0.60;;;;;;;;;;5013614;28;20334;-65
2023/10/30 03:45:44;;;;;;;6.93;1.23;;;;;;;;;;5013477;28;20060;-65
2023/10/30 03:48:09;;;;;;;2.15;0.80;;;;;;;;;;5014024;28;20371;-66
2023/10/30 03:50:34;;;;;;;7.32;1.55;;;;;;;;;;5013771;28;20119;-67
2023/10/30 03:53:00;;;;;;;4.90;1.60;;;;;;;;;;5014022;28;20029;-65
2023/10/30 03:55:25;;;;;;;5.47;1.10;;;;;;;;;;5013742;28;20096;-65
2023/10/30 03:57:50;;;;;;;3.03;1.20;;;;;;;;;;5012822;28;20692;-65
2023/10/30 04:00:15;;;;;;;5.67;1.20;;;;;;;;;;5014259;28;20790;-65
2023/10/30 04:02:41;;;;;;;2.08;0.45;;;;;;;;;;5014121;28;20743;-65
2023/10/30 04:05:07;;;;;;;2.13;0.90;;;;;;;;;;5013838;28;20105;-65
2023/10/30 04:07:32;;;;;;;9.50;1.65;;;;;;;;;;5013306;28;20017;-66
2023/10/30 04:09:57;;;;;;;8.95;1.10;;;;;;;;;;5009555;28;20022;-66
2023/10/30 04:12:22;;;;;;;5.65;1.02;;;;;;;;;;5012471;28;20112;-67
2023/10/30 04:14:48;;;;;;;3.87;1.20;;;;;;;;;;5013087;28;20602;-65
2023/10/30 04:17:13;;;;;;;6.28;0.88;;;;;;;;;;5013237;28;20696;-65
2023/10/30 04:19:38;;;;;;;3.55;1.08;;;;;;;;;;5013415;28;20018;-64
2023/10/30 04:22:03;;;;;;;3.93;1.20;;;;;;;;;;5013865;28;20038;-65
2023/10/30 04:24:29;;;;;;;5.15;1.48;;;;;;;;;;5013629;28;20272;-65
2023/10/30 04:26:54;;;;;;;3.05;0.90;;;;;;;;;;5014603;28;20033;-66
2023/10/30 04:29:19;;;;;;;3.40;1.07;;;;;;;;;;5013130;28;20034;-66
2023/10/30 04:31:44;;;;;;;2.15;0.90;;;;;;;;;;5013888;28;20292;-66
2023/10/30 04:34:10;;;;;;;3.03;0.75;;;;;;;;;;5013111;28;20156;-66
2023/10/30 04:36:35;;;;;;;4.53;1.60;;;;;;;;;;5010666;28;20048;-66
2023/10/30 04:39:00;;;;;;;4.43;1.20;;;;;;;;;;5013210;28;20029;-65
2023/10/30 04:41:25;;;;;;;3.83;1.08;;;;;;;;;;5013389;28;20277;-67
2023/10/30 04:43:50;;;;;;;3.67;1.00;;;;;;;;;;5013338;28;20445;-66
2023/10/30 04:46:17;;;;;;;4.13;0.80;;;;;;;;;;5013182;28;20029;-65
2023/10/30 04:48:42;;;;;;;7.43;0.90;;;;;;;;;;5013409;28;20273;-66
2023/10/30 04:51:07;;;;;;;2.92;0.90;;;;;;;;;;5012824;28;20032;-67
2023/10/30 04:53:32;;;;;;;4.00;1.10;;;;;;;;;;5014625;28;20080;-66
2023/10/30 04:55:59;;;;;;;7.47;1.10;;;;;;;;;;5013301;28;20058;-66
2023/10/30 04:58:24;;;;;;;6.63;1.42;;;;;;;;;;5013006;28;20284;-66
2023/10/30 05:00:49;;;;;;;4.23;1.13;;;;;;;;;;5013148;28;20395;-66
2023/10/30 05:03:16;;;;;;;2.92;0.70;;;;;;;;;;5012985;28;20277;-66
2023/10/30 05:05:41;;;;;;;2.65;0.82;;;;;;;;;;5012860;28;20117;-66
2023/10/30 05:08:06;;;;;;;6.25;1.38;;;;;;;;;;5013355;28;20117;-66
2023/10/30 05:10:31;;;;;;;4.38;1.02;;;;;;;;;;5003025;28;20054;-65
2023/10/30 05:12:57;;;;;;;6.32;1.02;;;;;;;;;;5008936;28;20034;-65
2023/10/30 05:15:22;;;;;;;3.42;0.95;;;;;;;;;;5012860;28;20170;-65
2023/10/30 05:17:47;;;;;;;5.05;1.30;;;;;;;;;;5012528;28;20026;-66
2023/10/30 05:20:13;;;;;;;4.05;0.95;;;;;;;;;;5013715;28;20403;-66
2023/10/30 05:22:38;;;;;;;3.55;1.50;;;;;;;;;;5012112;28;20136;-66
2023/10/30 05:25:05;;;;;;;3.35;1.08;;;;;;;;;;5012930;28;20030;-66
2023/10/30 05:27:30;;;;;;;5.53;1.35;;;;;;;;;;5012263;28;20033;-65
2023/10/30 05:29:56;;;;;;;7.90;0.93;;;;;;;;;;5012569;28;20029;-65
2023/10/30 05:32:21;;;;;;;3.08;0.70;;;;;;;;;;5012278;28;20026;-65
2023/10/30 05:34:46;;;;;;;4.10;0.83;;;;;;;;;;5011827;28;20435;-65
2023/10/30 05:37:12;;;;;;;5.15;1.08;;;;;;;;;;5012351;28;20631;-65
2023/10/30 05:39:37;;;;;;;5.45;0.80;;;;;;;;;;5012661;28;20026;-66
2023/10/30 05:42:03;;;;;;;4.32;1.30;;;;;;;;;;5012202;28;20381;-66
2023/10/30 05:44:31;;;;;;;3.15;0.82;;;;;;;;;;5011506;28;20025;-65
2023/10/30 05:46:59;;;;;;;4.63;1.02;;;;;;;;;;5012148;28;20040;-65
2023/10/30 05:49:25;;;;;;;5.65;0.98;;;;;;;;;;5012074;28;20113;-65
2023/10/30 05:51:51;;;;;;;4.30;0.95;;;;;;;;;;5012314;28;20121;-65
2023/10/30 05:54:16;;;;;;;4.85;1.40;;;;;;;;;;5012339;28;20104;-65
2023/10/30 05:56:41;;;;;;;5.10;1.47;;;;;;;;;;5011888;28;20026;-66
2023/10/30 05:59:07;;;;;;;3.40;0.93;;;;;;;;;;5012135;28;20334;-66
2023/10/30 06:01:32;;;;;;;4.30;1.05;;;;;;;;;;5012005;28;20021;-65
2023/10/30 06:03:57;;;;;;;3.77;0.87;;;;;;;;;;5012061;28;20034;-64
2023/10/30 06:06:22;;;;;;;4.22;1.05;;;;;;;;;;5011917;28;20347;-65
2023/10/30 06:08:48;;;;;;;4.15;1.17;;;;;;;;;;5011885;28;20377;-66
2023/10/30 06:11:13;;;;;;;5.87;1.00;;;;;;;;;;5007898;28;20494;-67
2023/10/30 06:13:38;;;;;;;4.93;0.97;;;;;;;;;;5011861;28;21653;-67
2023/10/30 06:16:04;;;;;;;8.15;1.13;;;;;;;;;;5011872;28;20636;-66
2023/10/30 06:18:29;;;;;;;5.80;1.17;;;;;;;;;;5010764;28;20045;-66
2023/10/30 06:20:56;;;;;;;3.17;0.82;;;;;;;;;;5010257;28;20037;-66
2023/10/30 06:23:21;;;;;;;4.32;1.20;;;;;;;;;;5011519;28;20468;-66
2023/10/30 06:25:46;;;;;;;4.88;1.08;;;;;;;;;;5011438;28;20029;-66
2023/10/30 06:28:14;;;;;;;4.00;1.30;;;;;;;;;;5011421;28;20145;-66
2023/10/30 06:30:40;;;;;;;9.85;1.00;;;;;;;;;;5011466;28;20101;-65
2023/10/30 06:33:05;;;;;;;8.80;2.00;;;;;;;;;;5011653;28;20060;-65
2023/10/30 06:35:30;;;;;;;3.00;1.10;;;;;;;;;;5011959;28;20029;-65
2023/10/30 06:37:56;;;;;;;3.40;0.85;;;;;;;;;;5011710;28;20277;-65
2023/10/30 06:40:21;;;;;;;4.43;0.93;;;;;;;;;;5011666;28;20033;-65
2023/10/30 06:42:46;;;;;;;4.90;1.08;;;;;;;;;;5009704;28;20277;-65
2023/10/30 06:45:11;;;;;;;4.05;1.17;;;;;;;;;;5004945;28;20034;-66
2023/10/30 06:47:36;;;;;;;1.75;0.73;;;;;;;;;;5011286;28;20057;-66
2023/10/30 06:50:02;;;;;;;5.57;0.80;;;;;;;;;;5011431;28;20033;-66
2023/10/30 06:52:27;;;;;;;5.57;1.42;;;;;;;;;;5011047;28;20323;-66
2023/10/30 06:54:53;;;;;;;2.85;1.15;;;;;;;;;;5011885;28;20033;-66
2023/10/30 06:57:18;;;;;;;5.97;1.30;;;;;;;;;;5012279;28;20491;-66
2023/10/30 06:59:43;;;;;;;6.93;1.40;;;;;;;;;;5011563;28;20117;-66
2023/10/30 07:02:09;;;;;;;6.45;1.38;;;;;;;;;;5011201;28;20030;-66
2023/10/30 07:04:34;;;;;;;2.70;0.90;;;;;;;;;;4999441;28;20080;-66
2023/10/30 07:06:59;;;;;;;8.03;1.57;;;;;;;;;;5010881;28;20387;-66
2023/10/30 07:09:25;;;;;;;3.13;0.88;;;;;;;;;;5006518;28;20431;-65
2023/10/30 07:11:50;;;;;;;2.63;0.95;;;;;;;;;;4997641;28;20030;-65
2023/10/30 07:14:15;;;;;;;4.47;0.90;;;;;;;;;;5010599;28;20026;-66
2023/10/30 07:16:41;;;;;;;4.07;1.48;;;;;;;;;;5010898;28;20033;-66
2023/10/30 07:19:06;;;;;;;4.88;0.85;;;;;;;;;;5010845;28;20041;-66
2023/10/30 07:21:31;;;;;;;7.05;1.20;;;;;;;;;;5011308;28;20034;-66
2023/10/30 07:23:57;;;;;;;3.75;1.05;;;;;;;;;;5010908;28;20033;-66
2023/10/30 07:26:22;;;;;;;4.20;1.35;;;;;;;;;;5005760;28;20030;-66
2023/10/30 07:28:51;;;;;;;4.47;1.27;;;;;;;;;;5011498;28;20096;-66
2023/10/30 07:31:20;;;;;;;3.30;0.80;;;;;;;;;;5005900;28;20544;-66
2023/10/30 07:33:45;;;;;;;4.25;0.95;;;;;;;;;;5012909;28;20065;-67
2023/10/30 07:36:10;;;;;;;4.70;1.17;;;;;;;;;;5014293;28;20431;-66
2023/10/30 07:38:36;;;;;;;3.70;1.00;;;;;;;;;;5014534;28;20068;-66
2023/10/30 07:41:02;;;;;;;4.18;1.05;;;;;;;;;;5014288;28;20730;-66
2023/10/30 07:43:27;;;;;;;2.63;0.80;;;;;;;;;;5014369;28;20029;-66
2023/10/30 07:45:53;;;;;;;3.85;1.10;;;;;;;;;;5013279;28;20415;-66
2023/10/30 07:48:18;;;;;;;4.50;1.38;;;;;;;;;;5013959;28;20065;-66
2023/10/30 07:50:43;;;;;;;7.22;1.40;;;;;;;;;;5013802;28;20076;-66
2023/10/30 07:53:08;;;;;;;2.58;1.00;;;;;;;;;;5014109;28;20053;-66
2023/10/30 07:55:34;;;;;;;1.83;0.70;;;;;;;;;;5014305;28;20022;-66
2023/10/30 07:57:59;;;;;;;7.50;1.10;;;;;;;;;;5014048;28;20049;-66
2023/10/30 08:00:25;;;;;;;6.20;1.20;;;;;;;;;;5013534;28;20456;-66
2023/10/30 08:02:50;;;;;;;2.33;0.85;;;;;;;;;;5012219;28;20022;-66
2023/10/30 08:05:15;;;;;;;7.05;0.90;;;;;;;;;;5013615;28;20021;-66
2023/10/30 08:07:47;;;;;;;4.00;0.77;;;;;;;;;;5013779;28;20041;-66
2023/10/30 08:10:13;;;;;;;3.08;0.95;;;;;;;;;;5007831;28;20033;-66
2023/10/30 08:12:39;;;;;;;4.20;0.85;;;;;;;;;;5012215;28;20441;-66
2023/10/30 08:15:05;;;;;;;2.42;0.70;;;;;;;;;;5013666;28;20083;-66
2023/10/30 08:17:30;;;;;;;2.13;0.70;;;;;;;;;;5013564;28;20032;-67
2023/10/30 08:19:55;;;;;;;4.20;1.10;;;;;;;;;;5013458;28;20026;-67
2023/10/30 08:22:21;;;;;;;2.47;0.80;;;;;;;;;;5001352;28;20033;-66
2023/10/30 08:24:46;;;;;;;3.97;0.85;;;;;;;;;;4981319;28;20025;-67
2023/10/30 08:27:11;;;;;;;5.07;0.80;;;;;;;;;;5012868;28;20029;-66
2023/10/30 08:29:37;;;;;;;3.63;1.15;;;;;;;;;;5012713;28;20054;-67
2023/10/30 08:32:02;;;;;;;3.97;0.70;;;;;;;;;;5012986;28;20033;-67
2023/10/30 08:34:27;;;;;;;3.72;1.17;;;;;;;;;;5013167;28;20750;-67
2023/10/30 08:36:53;;;;;;;3.22;0.82;;;;;;;;;;5012757;28;20033;-65
2023/10/30 08:39:18;;;;;;;3.00;0.63;;;;;;;;;;5016955;28;20038;-66
2023/10/30 08:41:43;;;;;;;2.83;0.87;;;;;;;;;;5014875;28;20024;-67
2023/10/30 08:44:08;;;;;;;3.50;0.97;;;;;;;;;;5012415;28;20846;-66
2023/10/30 08:46:34;;;;;;;2.78;1.30;;;;;;;;;;5012058;28;20726;-65
2023/10/30 08:48:59;;;;;;;2.67;0.77;;;;;;;;;;5009948;28;20036;-67
2023/10/30 08:51:25;;;;;;;3.42;1.17;;;;;;;;;;5012437;28;20376;-70
2023/10/30 08:53:51;;;;;;;3.53;1.23;;;;;;;;;;4990750;28;20840;-66
2023/10/30 08:56:16;;;;;;;5.05;1.00;;;;;;;;;;4972772;28;20025;-65
2023/10/30 08:58:42;;;;;;;2.95;0.90;;;;;;;;;;4970098;28;20387;-66
2023/10/30 09:01:07;;;;;;;4.30;0.68;;;;;;;;;;4969687;28;20028;-66
2023/10/30 09:03:33;;;;;;;5.57;0.93;;;;;;;;;;4970673;28;20076;-66
2023/10/30 09:05:58;;;;;;;3.13;0.80;;;;;;;;;;4973539;28;20045;-67
2023/10/30 09:08:23;;;;;;;8.23;1.10;;;;;;;;;;4975831;28;20014;-66
2023/10/30 09:10:49;;;;;;;2.60;0.70;;;;;;;;;;4969241;28;20884;-66
2023/10/30 09:13:14;;;;;;;5.70;0.87;;;;;;;;;;4962061;28;20025;-66
2023/10/30 09:15:39;;;;;;;3.60;1.00;;;;;;;;;;4976846;28;20273;-68
2023/10/30 09:18:05;;;;;;;3.05;0.45;;;;;;;;;;4978947;28;20273;-67
2023/10/30 09:20:30;;;;;;;1.98;0.40;;;;;;;;;;4973916;28;20043;-66
2023/10/30 09:22:55;;;;;;;2.17;0.65;;;;;;;;;;4973910;28;20045;-67
2023/10/30 09:25:21;;;;;;;3.50;0.88;;;;;;;;;;4971696;28;20060;-64
2023/10/30 09:27:50;;;;;;;2.03;0.52;;;;;;;;;;4971527;28;20137;-64
2023/10/30 09:30:15;;;;;;;3.03;0.80;;;;;;;;;;4974886;28;20030;-67
2023/10/30 09:32:40;;;;;;;2.60;0.70;;;;;;;;;;4982828;28;20034;-67
2023/10/30 09:35:05;;;;;;;1.95;0.88;;;;;;;;;;4969299;28;20017;-67
2023/10/30 09:37:31;;;;;;;2.88;0.70;;;;;;;;;;4969833;28;20749;-67
2023/10/30 09:39:56;;;;;;;5.00;1.20;;;;;;;;;;4963203;28;20026;-67
2023/10/30 09:42:22;;;;;;;3.00;0.80;;;;;;;;;;4970028;28;20853;-66
2023/10/30 09:44:47;;;;;;;2.90;0.88;;;;;;;;;;4969465;28;20137;-66
2023/10/30 09:47:14;;;;;;;4.65;1.10;;;;;;;;;;4973418;28;20473;-66
2023/10/30 09:49:39;;;;;;;5.20;1.02;;;;;;;;;;4990976;28;20037;-66
2023/10/30 09:52:05;;;;;;;2.90;0.47;;;;;;;;;;4968295;28;20088;-66
2023/10/30 09:54:32;;;;;;;1.90;0.47;;;;;;;;;;4974407;28;20031;-66
2023/10/30 09:56:59;;;;;;;1.60;0.55;;;;;;;;;;4967836;28;20232;-65
2023/10/30 09:59:25;;;;;;;3.97;0.88;;;;;;;;;;4968530;28;20042;-67
2023/10/30 10:01:50;;;;;;;1.05;0.45;;;;;;;;;;4964388;28;20022;-67
2023/10/30 10:04:16;;;;;;;4.65;0.93;;;;;;;;;;4962828;28;20088;-67
2023/10/30 10:06:42;;;;;;;2.95;0.85;;;;;;;;;;4957071;28;20092;-67
2023/10/30 10:09:07;;;;;;;5.63;0.77;;;;;;;;;;4969058;28;20041;-67
2023/10/30 10:11:33;;;;;;;1.63;0.57;;;;;;;;;;4961001;28;20018;-67
2023/10/30 10:13:58;;;;;;;2.97;0.77;;;;;;;;;;4965563;28;20830;-67
2023/10/30 10:16:25;;;;;;;3.33;0.63;;;;;;;;;;4973632;28;20228;-67
2023/10/30 10:18:50;;;;;;;2.60;0.70;;;;;;;;;;4977408;28;20038;-67
2023/10/30 10:21:15;;;;;;;2.17;0.70;;;;;;;;;;4964561;28;20924;-67
2023/10/30 10:23:43;;;;;;;1.17;0.43;;;;;;;;;;4963237;28;21218;-67
2023/10/30 10:26:13;;;;;;;2.13;0.70;;;;;;;;;;4967836;28;20304;-67
2023/10/30 10:28:39;;;;;;;1.88;0.55;;;;;;;;;;4966992;28;20022;-67
2023/10/30 10:31:05;;;;;;;0.85;0.40;;;;;;;;;;4968350;28;20046;-66
2023/10/30 10:33:32;;;;;;;2.87;0.80;;;;;;;;;;4961601;28;20023;-66
2023/10/30 10:36:01;;;;;;;1.38;0.43;;;;;;;;;;4965504;28;20331;-66
2023/10/30 10:38:27;;;;;;;3.33;0.75;;;;;;;;;;4968167;28;20093;-66
2023/10/30 10:40:53;;;;;;;1.70;0.60;;;;;;;;;;4967462;28;20926;-66
2023/10/30 10:43:19;;;;;;;2.03;0.65;;;;;;;;;;4968435;28;20038;-66
2023/10/30 10:45:48;;;;;;;1.33;0.45;;;;;;;;;;4966675;28;20022;-66
2023/10/30 10:48:13;;;;;;;2.30;0.30;;;;;;;;;;4966171;28;20864;-66
2023/10/30 10:50:39;;;;;;;4.00;0.77;;;;;;;;;;4969078;28;20066;-66
2023/10/30 10:53:06;;;;;;;3.50;0.70;;;;;;;;;;4968258;28;20061;-66
2023/10/30 10:55:34;;;;;;;3.35;0.70;;;;;;;;;;4968129;28;20787;-66
2023/10/30 10:58:08;;;;;;;2.60;0.80;;;;;;;;;;4964286;28;20025;-66
2023/10/30 11:00:36;;;;;;;2.35;0.70;;;;;;;;;;4968438;28;20026;-66
2023/10/30 11:03:04;;;;;;;4.18;0.88;;;;;;;;;;4969361;28;20026;-66
2023/10/30 11:05:30;;;;;;;1.50;0.57;;;;;;;;;;4973284;28;20105;-66
2023/10/30 11:08:15;;;;;;;2.05;0.52;;;;;;;;;;4967679;28;20030;-67
2023/10/30 11:10:46;;;;;;;2.45;0.73;;;;;;;;;;4969430;28;20046;-66
2023/10/30 11:13:31;;;;;;;3.35;0.85;;;;;;;;;;4960527;28;21015;-66
2023/10/30 11:16:02;;;;;;;1.90;0.60;;;;;;;;;;5004678;28;20084;-65
2023/10/30 11:18:28;;;;;;;0.77;0.30;;;;;;;;;;5014068;28;20425;-66
2023/10/30 11:21:14;;;;;;;3.07;0.73;;;;;;;;;;5014076;28;20176;-66
2023/10/30 11:23:47;;;;;;;1.52;0.50;;;;;;;;;;5013283;28;20690;-66
2023/10/30 11:26:36;;;;;;;2.50;0.60;;;;;;;;;;5013646;28;20045;-66
2023/10/30 11:29:03;;;;;;;2.35;0.80;;;;;;;;;;5013557;28;20120;-66
2023/10/30 11:31:29;;;;;;;1.75;0.63;;;;;;;;;;5014226;28;20052;-67
2023/10/30 11:34:06;;;;;;;2.45;0.65;;;;;;;;;;5013763;28;20475;-66
2023/10/30 11:36:34;;;;;;;4.47;0.82;;;;;;;;;;5002188;28;20037;-66
2023/10/30 11:38:59;;;;;;;1.40;0.60;;;;;;;;;;5013961;28;20022;-66
2023/10/30 11:41:24;;;;;;;1.60;0.50;;;;;;;;;;5014415;28;20361;-66
2023/10/30 11:43:50;;;;;;;1.95;0.40;;;;;;;;;;5013432;28;21095;-67
2023/10/30 11:46:18;;;;;;;2.42;0.68;;;;;;;;;;4973000;28;20153;-66
2023/10/30 11:48:44;;;;;;;1.45;0.55;;;;;;;;;;4976408;28;20784;-66
2023/10/30 11:51:09;;;;;;;1.65;0.75;;;;;;;;;;4971401;28;20073;-67
2023/10/30 11:53:34;;;;;;;1.27;0.50;;;;;;;;;;4970074;28;20843;-67
2023/10/30 11:56:00;;;;;;;3.42;0.93;;;;;;;;;;4957618;28;20029;-67
2023/10/30 11:58:26;;;;;;;4.07;1.00;;;;;;;;;;4971102;28;20863;-67
2023/10/30 12:00:51;;;;;;;3.05;0.60;;;;;;;;;;4970643;28;20030;-67
2023/10/30 12:03:17;;;;;;;4.25;0.82;;;;;;;;;;4971590;28;20021;-66
2023/10/30 12:05:42;;;;;;;4.47;0.77;;;;;;;;;;4969764;28;20079;-67
2023/10/30 12:08:09;;;;;;;2.53;0.55;;;;;;;;;;4971182;28;20752;-67
2023/10/30 12:10:35;;;;;;;2.55;0.73;;;;;;;;;;4970568;28;20025;-67
2023/10/30 12:13:00;;;;;;;4.20;1.00;;;;;;;;;;4968612;28;20026;-67
2023/10/30 12:15:26;;;;;;;2.30;0.90;;;;;;;;;;4967955;28;20029;-67
2023/10/30 12:17:51;;;;;;;1.90;0.57;;;;;;;;;;4970753;28;20146;-67
2023/10/30 12:20:16;;;;;;;3.67;0.75;;;;;;;;;;4962534;28;20022;-67
2023/10/30 12:22:43;;;;;;;1.67;0.53;;;;;;;;;;4959937;28;20022;-66
2023/10/30 12:25:13;;;;;;;3.65;0.77;;;;;;;;;;4968803;28;21080;-66
2023/10/30 12:27:38;;;;;;;2.08;0.80;;;;;;;;;;4969487;28;20197;-66
2023/10/30 12:30:14;;;;;;;2.33;0.60;;;;;;;;;;4967973;28;20888;-66
2023/10/30 12:32:39;;;;;;;4.20;1.05;;;;;;;;;;4969202;28;20054;-67
2023/10/30 12:35:11;;;;;;;2.10;0.98;;;;;;;;;;4958048;28;20026;-66
2023/10/30 12:37:37;;;;;;;5.00;1.00;;;;;;;;;;4969827;28;20022;-66
2023/10/30 12:40:09;;;;;;;3.10;0.93;;;;;;;;;;4970366;28;20129;-67
2023/10/30 12:42:36;;;;;;;1.67;0.60;;;;;;;;;;4969815;28;20088;-66
2023/10/30 12:45:09;;;;;;;3.88;1.38;;;;;;;;;;4965579;28;20287;-66
2023/10/30 12:47:41;;;;;;;2.08;0.93;;;;;;;;;;4973846;28;20080;-67
2023/10/30 12:50:07;;;;;;;1.88;0.68;;;;;;;;;;4970959;28;20014;-67
2023/10/30 12:52:32;;;;;;;1.75;0.60;;;;;;;;;;4969525;28;20860;-66
2023/10/30 12:54:58;;;;;;;1.95;0.73;;;;;;;;;;4971037;28;20951;-66
2023/10/30 12:57:24;;;;;;;1.83;0.65;;;;;;;;;;4972746;28;20022;-67
2023/10/30 12:59:49;;;;;;;2.80;0.63;;;;;;;;;;4966984;28;20887;-66
2023/10/30 13:02:15;;;;;;;2.53;0.80;;;;;;;;;;4973459;28;20125;-67
2023/10/30 13:04:40;;;;;;;3.20;0.52;;;;;;;;;;4972191;28;21170;-66
2023/10/30 13:07:06;;;;;;;3.50;0.68;;;;;;;;;;4972398;28;20061;-66
2023/10/30 13:09:31;;;;;;;2.28;0.85;;;;;;;;;;4970662;28;20093;-66
2023/10/30 13:11:56;;;;;;;3.57;0.97;;;;;;;;;;4969095;28;20026;-66
2023/10/30 13:14:21;;;;;;;3.63;0.80;;;;;;;;;;4971138;28;20287;-66
2023/10/30 13:16:47;;;;;;;3.77;1.10;;;;;;;;;;4970505;28;20033;-67
2023/10/30 13:19:12;;;;;;;2.33;0.95;;;;;;;;;;4976285;28;20284;-65
2023/10/30 13:21:38;;;;;;;2.47;0.80;;;;;;;;;;4969197;28;20119;-67
2023/10/30 13:24:03;;;;;;;3.25;1.08;;;;;;;;;;4968988;28;20911;-66
2023/10/30 13:26:29;;;;;;;2.53;0.80;;;;;;;;;;4973006;28;20144;-66
2023/10/30 13:28:54;;;;;;;2.17;0.80;;;;;;;;;;4971234;28;20868;-66
2023/10/30 13:31:19;;;;;;;3.65;0.82;;;;;;;;;;4970474;28;20486;-66
2023/10/30 13:33:45;;;;;;;2.97;1.40;;;;;;;;;;4970198;28;20880;-67
2023/10/30 13:36:12;;;;;;;2.45;0.93;;;;;;;;;;4969070;28;20026;-66
2023/10/30 13:38:37;;;;;;;2.70;0.88;;;;;;;;;;4970007;28;20076;-66
2023/10/30 13:41:03;;;;;;;3.05;1.30;;;;;;;;;;4954516;28;20873;-66
2023/10/30 13:43:28;;;;;;;5.45;1.27;;;;;;;;;;4972620;28;20149;-67
2023/10/30 13:45:53;;;;;;;3.70;1.27;;;;;;;;;;4973847;28;20030;-66
2023/10/30 13:48:18;;;;;;;3.53;1.20;;;;;;;;;;4965579;28;20312;-65
2023/10/30 13:50:44;;;;;;;3.92;0.98;;;;;;;;;;4964255;28;20826;-65
2023/10/30 13:53:09;;;;;;;2.05;0.80;;;;;;;;;;4968693;28;20056;-66
2023/10/30 13:55:34;;;;;;;3.97;0.93;;;;;;;;;;4968764;28;20942;-66
2023/10/30 13:57:59;;;;;;;3.63;1.10;;;;;;;;;;4959530;28;20668;-65
2023/10/30 14:00:25;;;;;;;3.17;0.70;;;;;;;;;;4967973;28;20330;-66
2023/10/30 14:02:50;;;;;;;5.65;0.90;;;;;;;;;;4968477;28;20141;-66
2023/10/30 14:05:16;;;;;;;4.90;1.20;;;;;;;;;;4968478;28;20037;-66
2023/10/30 14:07:41;;;;;;;3.22;1.20;;;;;;;;;;4969366;28;20133;-66
2023/10/30 14:10:06;;;;;;;2.60;1.10;;;;;;;;;;4977177;28;20532;-66
2023/10/30 14:12:32;;;;;;;6.00;1.33;;;;;;;;;;4971310;28;20176;-66
2023/10/30 14:14:57;;;;;;;2.90;0.98;;;;;;;;;;4970640;28;20048;-67
2023/10/30 14:17:22;;;;;;;4.35;1.13;;;;;;;;;;4969238;28;20028;-67
2023/10/30 14:19:48;;;;;;;2.83;1.08;;;;;;;;;;4962499;28;20888;-68
2023/10/30 14:22:13;;;;;;;5.00;1.40;;;;;;;;;;4970071;28;20868;-67
2023/10/30 14:24:39;;;;;;;2.20;1.00;;;;;;;;;;4963614;28;20029;-67
2023/10/30 14:27:04;;;;;;;4.38;1.17;;;;;;;;;;4970575;28;20044;-66
2023/10/30 14:29:29;;;;;;;6.28;1.30;;;;;;;;;;4974192;28;20053;-67
2023/10/30 14:31:55;;;;;;;4.70;1.30;;;;;;;;;;4971397;28;20128;-67
2023/10/30 14:34:20;;;;;;;3.67;1.10;;;;;;;;;;4972865;28;20026;-67